createdAt,value
2018-07-30T00:00:21.013Z,62.30
2018-07-30T00:02:49.711Z,62.60
2018-07-30T00:05:18.467Z,62.90
2018-07-30T00:07:47.207Z,62.90
2018-07-30T00:10:16.091Z,62.90
2018-07-30T00:12:44.720Z,62.90
2018-07-30T00:15:13.406Z,62.80
2018-07-30T00:17:43.824Z,64.70
2018-07-30T00:20:12.620Z,65.20
2018-07-30T00:22:41.263Z,66.20
2018-07-30T00:25:12.560Z,65.40
2018-07-30T00:27:42.007Z,65.40
2018-07-30T00:30:10.887Z,65.70
2018-07-30T00:32:39.682Z,65.80
2018-07-30T00:35:08.535Z,65.80
2018-07-30T00:37:39.330Z,65.90
2018-07-30T00:40:11.532Z,66.20
2018-07-30T00:42:40.379Z,66.20
2018-07-30T00:45:09.131Z,66.50
2018-07-30T00:47:38.796Z,67.10
2018-07-30T00:50:07.523Z,67.40
2018-07-30T00:52:36.240Z,67.50
2018-07-30T00:55:05.080Z,67.90
2018-07-30T00:57:33.820Z,67.60
2018-07-30T01:00:02.635Z,67.00
2018-07-30T01:02:31.273Z,67.60
2018-07-30T01:05:00.037Z,67.80
2018-07-30T01:07:28.721Z,67.70
2018-07-30T01:09:57.430Z,67.80
2018-07-30T01:12:26.099Z,67.70
2018-07-30T01:14:54.827Z,66.80
2018-07-30T01:17:23.389Z,68.10
2018-07-30T01:19:52.209Z,66.30
2018-07-30T01:22:20.894Z,68.40
2018-07-30T01:24:49.613Z,68.70
2018-07-30T01:27:18.673Z,69.10
2018-07-30T01:29:49.164Z,69.10
2018-07-30T01:32:17.741Z,69.40
2018-07-30T01:34:48.215Z,69.30
2018-07-30T01:37:16.912Z,69.30
2018-07-30T01:39:48.408Z,68.80
2018-07-30T01:42:17.430Z,68.60
2018-07-30T01:44:47.072Z,67.60
2018-07-30T01:47:16.396Z,68.20
2018-07-30T01:49:45.226Z,68.60
2018-07-30T01:52:14.037Z,68.90
2018-07-30T01:54:42.659Z,68.70
2018-07-30T01:57:11.398Z,69.60
2018-07-30T01:59:40.194Z,69.40
2018-07-30T02:02:08.884Z,69.10
2018-07-30T02:04:37.600Z,69.30
2018-07-30T02:07:12.108Z,69.60
2018-07-30T02:09:45.040Z,69.50
2018-07-30T02:12:13.964Z,69.30
2018-07-30T02:14:43.551Z,69.70
2018-07-30T02:17:12.248Z,68.80
2018-07-30T02:19:40.980Z,69.90
2018-07-30T02:22:09.705Z,70.70
2018-07-30T02:24:38.447Z,70.90
2018-07-30T02:27:07.192Z,72.00
2018-07-30T02:29:35.859Z,71.10
2018-07-30T02:32:04.866Z,71.10
2018-07-30T02:34:33.661Z,71.20
2018-07-30T02:37:02.398Z,70.70
2018-07-30T02:39:31.040Z,70.70
2018-07-30T02:41:59.598Z,70.80
2018-07-30T02:44:28.289Z,69.20
2018-07-30T02:46:57.775Z,70.70
2018-07-30T02:49:26.343Z,70.50
2018-07-30T02:51:55.161Z,70.50
2018-07-30T02:54:23.787Z,70.30
2018-07-30T02:56:52.487Z,70.90
2018-07-30T02:59:21.307Z,70.80
2018-07-30T03:01:50.048Z,71.30
2018-07-30T03:04:18.752Z,71.70
2018-07-30T03:06:47.446Z,71.90
2018-07-30T03:09:16.340Z,71.80
2018-07-30T03:11:45.025Z,71.80
2018-07-30T03:14:13.664Z,71.60
2018-07-30T03:16:42.353Z,71.30
2018-07-30T03:19:11.000Z,69.90
2018-07-30T03:21:39.896Z,71.30
2018-07-30T03:24:09.399Z,71.20
2018-07-30T03:26:38.146Z,70.70
2018-07-30T03:29:06.934Z,70.80
2018-07-30T03:31:35.837Z,70.40
2018-07-30T03:34:04.692Z,70.30
2018-07-30T03:36:33.452Z,70.60
2018-07-30T03:39:02.336Z,70.30
2018-07-30T03:41:31.144Z,71.20
2018-07-30T03:43:59.875Z,70.40
2018-07-30T03:46:28.486Z,70.40
2018-07-30T03:48:59.151Z,71.20
2018-07-30T03:51:27.812Z,71.30
2018-07-30T03:53:57.621Z,71.60
2018-07-30T03:56:26.515Z,71.40
2018-07-30T03:58:58.159Z,71.80
2018-07-30T04:01:26.884Z,72.30
2018-07-30T04:03:55.761Z,72.60
2018-07-30T04:06:24.564Z,72.50
2018-07-30T04:08:53.485Z,72.80
2018-07-30T04:11:22.330Z,72.80
2018-07-30T04:13:51.119Z,72.80
2018-07-30T04:16:19.969Z,72.90
2018-07-30T04:18:48.716Z,71.60
2018-07-30T04:21:17.537Z,72.90
2018-07-30T04:23:46.239Z,72.90
2018-07-30T04:26:15.034Z,72.90
2018-07-30T04:28:44.973Z,72.70
2018-07-30T04:31:13.789Z,72.20
2018-07-30T04:33:42.624Z,72.70
2018-07-30T04:36:11.457Z,72.70
2018-07-30T04:38:40.195Z,72.80
2018-07-30T04:41:08.893Z,72.90
2018-07-30T04:43:37.635Z,72.90
2018-07-30T04:46:06.461Z,72.90
2018-07-30T04:48:35.149Z,72.20
2018-07-30T04:51:03.900Z,72.80
2018-07-30T04:53:35.343Z,71.90
2018-07-30T04:56:04.068Z,71.90
2018-07-30T04:58:33.468Z,72.10
2018-07-30T05:01:02.328Z,73.30
2018-07-30T05:03:31.097Z,72.10
2018-07-30T05:06:00.027Z,71.90
2018-07-30T05:08:28.777Z,71.80
2018-07-30T05:10:57.583Z,71.30
2018-07-30T05:13:26.290Z,70.80
2018-07-30T05:15:56.281Z,71.30
2018-07-30T05:18:25.021Z,71.10
2018-07-30T05:20:53.750Z,70.20
2018-07-30T05:23:22.752Z,70.10
2018-07-30T05:25:51.443Z,69.70
2018-07-30T05:28:20.256Z,69.10
2018-07-30T05:30:49.086Z,68.70
2018-07-30T05:33:19.326Z,68.70
2018-07-30T05:35:51.806Z,67.20
2018-07-30T05:38:20.483Z,68.80
2018-07-30T05:40:53.917Z,69.80
2018-07-30T05:43:22.779Z,68.60
2018-07-30T05:45:51.447Z,68.40
2018-07-30T05:48:20.220Z,68.40
2018-07-30T05:50:49.035Z,68.40
2018-07-30T05:53:17.824Z,67.90
2018-07-30T05:55:46.600Z,68.40
2018-07-30T05:58:15.357Z,68.00
2018-07-30T06:00:44.171Z,68.10
2018-07-30T06:03:15.890Z,67.30
2018-07-30T06:05:49.150Z,67.30
2018-07-30T06:08:17.853Z,67.00
2018-07-30T06:10:46.577Z,67.00
2018-07-30T06:13:16.416Z,66.70
2018-07-30T06:15:45.261Z,66.60
2018-07-30T06:18:13.917Z,66.60
2018-07-30T06:20:42.582Z,66.60
2018-07-30T06:23:11.354Z,66.50
2018-07-30T06:25:40.116Z,66.50
2018-07-30T06:28:08.736Z,66.40
2018-07-30T06:30:38.142Z,64.80
2018-07-30T06:33:07.006Z,66.50
2018-07-30T06:35:35.782Z,66.30
2018-07-30T06:38:04.778Z,65.90
2018-07-30T06:40:33.583Z,65.80
2018-07-30T06:43:06.327Z,65.40
2018-07-30T06:45:35.193Z,65.30
2018-07-30T06:48:04.171Z,65.30
2018-07-30T06:50:39.036Z,65.20
2018-07-30T06:53:15.912Z,65.60
2018-07-30T06:55:44.964Z,64.30
2018-07-30T06:58:21.298Z,63.30
2018-07-30T07:00:58.361Z,63.40
2018-07-30T07:03:27.565Z,62.50
2018-07-30T07:05:56.286Z,62.30
2018-07-30T07:08:25.462Z,61.90
2018-07-30T07:10:54.537Z,62.20
2018-07-30T07:13:23.278Z,61.90
2018-07-30T07:15:52.034Z,61.70
2018-07-30T07:18:20.752Z,61.10
2018-07-30T07:20:49.888Z,60.80
2018-07-30T07:23:18.470Z,60.60
2018-07-30T07:25:47.192Z,59.90
2018-07-30T07:28:15.936Z,59.70
2018-07-30T07:30:46.462Z,59.80
2018-07-30T07:33:19.285Z,59.50
2018-07-30T07:35:48.157Z,59.50
2018-07-30T07:38:16.857Z,59.10
2018-07-30T07:40:45.594Z,58.80
2018-07-30T07:43:15.638Z,58.90
2018-07-30T07:45:44.411Z,58.70
2018-07-30T07:48:13.880Z,58.50
2018-07-30T07:50:49.878Z,58.20
2018-07-30T07:53:19.001Z,57.80
2018-07-30T07:55:47.772Z,58.00
2018-07-30T07:58:16.586Z,57.80
2018-07-30T08:00:45.349Z,57.60
2018-07-30T08:03:18.576Z,57.40
2018-07-30T08:05:52.565Z,56.70
2018-07-30T08:08:26.569Z,56.80
2018-07-30T08:10:55.515Z,56.80
2018-07-30T08:13:27.705Z,56.70
2018-07-30T08:15:57.335Z,56.50
2018-07-30T08:18:30.119Z,56.20
2018-07-30T08:20:58.937Z,55.90
2018-07-30T08:23:27.786Z,56.20
2018-07-30T08:26:06.711Z,55.80
2018-07-30T08:28:35.579Z,55.20
2018-07-30T08:31:04.338Z,55.20
2018-07-30T08:33:33.135Z,55.20
2018-07-30T08:36:02.024Z,54.30
2018-07-30T08:38:31.408Z,54.90
2018-07-30T08:41:00.325Z,55.20
2018-07-30T08:43:29.034Z,55.40
2018-07-30T08:45:57.815Z,54.60
2018-07-30T08:48:26.575Z,54.30
2018-07-30T08:50:55.328Z,54.00
2018-07-30T08:53:24.086Z,53.40
2018-07-30T08:55:52.826Z,53.00
2018-07-30T08:58:21.528Z,52.20
2018-07-30T09:00:50.136Z,52.30
2018-07-30T09:03:18.895Z,51.10
2018-07-30T09:05:47.575Z,50.90
2018-07-30T09:08:16.373Z,51.00
2018-07-30T09:10:45.165Z,50.80
2018-07-30T09:13:13.903Z,50.50
2018-07-30T09:15:46.412Z,51.20
2018-07-30T09:18:20.927Z,51.30
2018-07-30T09:20:54.355Z,50.40
2018-07-30T09:23:29.123Z,51.30
2018-07-30T09:25:57.970Z,51.20
2018-07-30T09:28:26.645Z,51.10
2018-07-30T09:30:55.544Z,50.80
2018-07-30T09:33:24.494Z,50.60
2018-07-30T09:35:53.302Z,50.50
2018-07-30T09:38:22.137Z,50.30
2018-07-30T09:40:50.930Z,50.80
2018-07-30T09:43:19.705Z,51.00
2018-07-30T09:45:48.388Z,50.70
2018-07-30T09:48:17.130Z,50.40
2018-07-30T09:50:45.999Z,50.40
2018-07-30T09:53:19.058Z,50.20
2018-07-30T09:55:47.875Z,49.40
2018-07-30T09:58:16.545Z,49.30
2018-07-30T10:00:51.013Z,49.60
2018-07-30T10:03:19.833Z,49.40
2018-07-30T10:05:48.867Z,48.90
2018-07-30T10:08:17.788Z,47.80
2018-07-30T10:10:46.844Z,48.30
2018-07-30T10:13:18.744Z,48.70
2018-07-30T10:15:47.666Z,48.70
2018-07-30T10:18:16.548Z,48.20
2018-07-30T10:20:45.237Z,47.80
2018-07-30T10:23:15.512Z,47.20
2018-07-30T10:25:44.239Z,46.60
2018-07-30T10:28:13.059Z,47.60
2018-07-30T10:30:41.760Z,45.90
2018-07-30T10:33:12.007Z,45.60
2018-07-30T10:35:40.553Z,45.30
2018-07-30T10:38:11.182Z,45.80
2018-07-30T10:40:39.994Z,45.40
2018-07-30T10:43:09.552Z,44.80
2018-07-30T10:45:38.449Z,42.80
2018-07-30T10:48:10.361Z,43.80
2018-07-30T10:50:39.154Z,44.90
2018-07-30T10:53:08.573Z,45.40
2018-07-30T10:55:37.542Z,45.90
2018-07-30T10:58:06.708Z,45.00
2018-07-30T11:00:40.898Z,43.70
2018-07-30T11:03:14.878Z,43.50
2018-07-30T11:05:47.968Z,43.10
2018-07-30T11:08:16.779Z,42.10
2018-07-30T11:10:45.674Z,43.40
2018-07-30T11:13:14.449Z,44.10
2018-07-30T11:15:43.427Z,44.60
2018-07-30T11:18:12.511Z,44.80
2018-07-30T11:20:41.280Z,45.00
2018-07-30T11:23:10.034Z,45.10
2018-07-30T11:25:38.732Z,44.60
2018-07-30T11:28:07.636Z,45.20
2018-07-30T11:30:36.412Z,44.70
2018-07-30T11:33:05.240Z,43.40
2018-07-30T11:35:33.947Z,41.10
2018-07-30T11:38:02.667Z,38.50
2018-07-30T11:40:31.422Z,35.50
2018-07-30T11:43:00.593Z,33.80
2018-07-30T11:45:29.390Z,33.30
2018-07-30T11:47:58.085Z,32.30
2018-07-30T11:50:26.864Z,31.20
2018-07-30T11:52:56.686Z,31.60
2018-07-30T11:55:25.295Z,31.60
2018-07-30T11:57:54.040Z,30.30
2018-07-30T12:00:22.876Z,30.00
2018-07-30T12:02:51.532Z,28.90
2018-07-30T12:05:20.291Z,28.60
2018-07-30T12:07:57.706Z,29.70
2018-07-30T12:10:31.615Z,31.00
2018-07-30T12:13:00.549Z,33.90
2018-07-30T12:15:39.491Z,34.50
2018-07-30T12:18:16.381Z,32.90
2018-07-30T12:20:45.318Z,31.10
2018-07-30T12:23:14.084Z,31.40
2018-07-30T12:25:43.286Z,32.40
2018-07-30T12:28:11.959Z,33.00
2018-07-30T12:30:41.211Z,32.80
2018-07-30T12:33:10.084Z,29.90
2018-07-30T12:35:40.240Z,28.50
2018-07-30T12:38:09.046Z,27.90
2018-07-30T12:40:37.952Z,29.30
2018-07-30T12:43:15.776Z,30.90
2018-07-30T12:45:53.711Z,32.80
2018-07-30T12:48:36.041Z,32.80
2018-07-30T12:51:14.492Z,33.90
2018-07-30T12:53:48.045Z,34.60
2018-07-30T12:56:16.770Z,35.40
2018-07-30T12:58:50.511Z,35.70
2018-07-30T13:01:19.456Z,36.00
2018-07-30T13:03:49.307Z,36.90
2018-07-30T13:06:17.942Z,40.20
2018-07-30T13:08:46.714Z,41.30
2018-07-30T13:11:15.670Z,42.20
2018-07-30T13:13:44.586Z,42.10
2018-07-30T13:16:13.257Z,42.50
2018-07-30T13:18:41.962Z,42.70
2018-07-30T13:21:10.729Z,43.10
2018-07-30T13:23:49.272Z,43.30
2018-07-30T13:26:27.933Z,43.60
2018-07-30T13:28:56.840Z,43.90
2018-07-30T13:31:25.749Z,44.20
2018-07-30T13:33:57.010Z,45.70
2018-07-30T13:36:25.663Z,45.00
2018-07-30T13:38:54.380Z,44.50
2018-07-30T13:41:23.048Z,44.00
2018-07-30T13:43:56.051Z,43.80
2018-07-30T13:46:24.741Z,44.30
2018-07-30T13:48:53.410Z,44.50
2018-07-30T13:51:22.078Z,44.80
2018-07-30T13:53:50.782Z,45.10
2018-07-30T13:56:19.456Z,45.80
2018-07-30T13:58:48.152Z,46.10
2018-07-30T14:01:16.868Z,46.00
2018-07-30T14:03:45.583Z,45.30
2018-07-30T14:06:14.214Z,44.30
2018-07-30T14:08:42.937Z,43.40
2018-07-30T14:11:11.591Z,41.60
2018-07-30T14:13:40.330Z,38.90
2018-07-30T14:16:09.091Z,36.90
2018-07-30T14:18:37.819Z,37.00
2018-07-30T14:21:06.528Z,39.30
2018-07-30T14:23:37.018Z,40.70
2018-07-30T14:26:05.697Z,41.30
2018-07-30T14:28:34.443Z,41.50
2018-07-30T14:31:03.192Z,41.40
2018-07-30T14:33:31.884Z,41.60
2018-07-30T14:36:00.631Z,40.40
2018-07-30T14:38:29.303Z,39.50
2018-07-30T14:40:58.090Z,38.10
2018-07-30T14:43:26.940Z,35.30
2018-07-30T14:45:55.638Z,34.40
2018-07-30T14:48:24.321Z,33.30
2018-07-30T14:50:53.688Z,33.30
2018-07-30T14:53:23.384Z,33.30
2018-07-30T14:55:55.007Z,31.60
2018-07-30T14:58:23.709Z,31.00
2018-07-30T15:00:52.297Z,31.10
2018-07-30T15:03:21.061Z,29.20
2018-07-30T15:05:49.864Z,28.30
2018-07-30T15:08:18.550Z,28.10
2018-07-30T15:10:47.247Z,32.30
2018-07-30T15:13:15.972Z,34.80
2018-07-30T15:15:44.681Z,35.80
2018-07-30T15:18:13.423Z,34.50
2018-07-30T15:20:42.186Z,34.30
2018-07-30T15:23:10.917Z,34.50
2018-07-30T15:25:39.681Z,33.50
2018-07-30T15:29:37.758Z,34.70
2018-07-30T15:32:06.566Z,37.50
2018-07-30T15:34:35.269Z,36.90
2018-07-30T15:37:04.034Z,37.80
2018-07-30T15:39:32.796Z,37.50
2018-07-30T15:42:01.407Z,38.20
2018-07-30T15:44:30.190Z,37.90
2018-07-30T15:46:58.856Z,39.10
2018-07-30T15:49:27.557Z,39.10
2018-07-30T15:51:56.206Z,38.60
2018-07-30T15:54:24.898Z,38.80
2018-07-30T15:56:54.043Z,39.00
2018-07-30T15:59:22.728Z,39.30
2018-07-30T16:01:51.295Z,40.80
2018-07-30T16:04:20.200Z,41.10
2018-07-30T16:06:48.939Z,40.90
2018-07-30T16:09:17.678Z,41.80
2018-07-30T16:11:46.574Z,41.50
2018-07-30T16:14:15.383Z,41.40
2018-07-30T16:16:44.266Z,40.50
2018-07-30T16:19:12.936Z,39.90
2018-07-30T16:21:41.842Z,39.80
2018-07-30T16:24:10.640Z,40.20
2018-07-30T16:26:39.287Z,39.80
2018-07-30T16:29:08.067Z,39.50
2018-07-30T16:31:36.760Z,39.30
2018-07-30T16:34:05.581Z,39.30
2018-07-30T16:36:34.514Z,39.80
2018-07-30T16:39:03.473Z,39.30
2018-07-30T16:41:34.731Z,38.90
2018-07-30T16:44:03.381Z,38.80
2018-07-30T16:46:32.066Z,38.10
2018-07-30T16:49:00.984Z,38.40
2018-07-30T16:51:29.919Z,38.30
2018-07-30T16:53:58.654Z,38.70
2018-07-30T16:56:27.348Z,38.90
2018-07-30T16:58:56.154Z,38.40
2018-07-30T17:01:24.953Z,38.70
2018-07-30T17:03:54.443Z,38.90
2018-07-30T17:06:23.172Z,39.00
2018-07-30T17:08:51.921Z,38.90
2018-07-30T17:11:20.640Z,38.90
2018-07-30T17:13:49.309Z,38.80
2018-07-30T17:16:17.960Z,38.90
2018-07-30T17:18:46.688Z,39.30
2018-07-30T17:21:15.484Z,39.70
2018-07-30T17:23:44.187Z,40.00
2018-07-30T17:26:12.817Z,40.30
2018-07-30T17:28:41.560Z,40.60
2018-07-30T17:31:10.348Z,40.90
2018-07-30T17:33:40.024Z,41.30
2018-07-30T17:36:08.767Z,41.60
2018-07-30T17:38:37.569Z,41.70
2018-07-30T17:41:06.874Z,41.70
2018-07-30T17:43:36.630Z,41.80
2018-07-30T17:46:05.988Z,42.00
2018-07-30T17:48:34.656Z,41.80
2018-07-30T17:51:03.618Z,41.80
2018-07-30T17:53:32.422Z,41.90
2018-07-30T17:56:01.694Z,42.10
2018-07-30T17:58:30.541Z,42.20
2018-07-30T18:00:59.268Z,42.00
2018-07-30T18:03:28.860Z,42.20
2018-07-30T18:06:04.259Z,42.20
2018-07-30T18:08:33.164Z,42.80
2018-07-30T18:11:01.948Z,43.50
2018-07-30T18:13:31.830Z,43.50
2018-07-30T18:16:00.750Z,43.50
2018-07-30T18:18:30.101Z,43.50
2018-07-30T18:20:58.826Z,43.60
2018-07-30T18:23:27.637Z,44.20
2018-07-30T18:25:59.501Z,44.70
2018-07-30T18:28:28.335Z,45.50
2018-07-30T18:30:57.144Z,46.10
2018-07-30T18:33:25.987Z,46.20
2018-07-30T18:35:54.733Z,46.70
2018-07-30T18:38:23.472Z,47.00
2018-07-30T18:40:52.321Z,47.30
2018-07-30T18:43:21.240Z,47.80
2018-07-30T18:45:50.140Z,48.20
2018-07-30T18:48:19.037Z,48.60
2018-07-30T18:50:47.845Z,49.00
2018-07-30T18:53:16.640Z,49.10
2018-07-30T18:55:45.452Z,49.40
2018-07-30T18:58:14.217Z,49.60
2018-07-30T19:00:44.579Z,50.60
2018-07-30T19:03:13.410Z,50.50
2018-07-30T19:05:42.262Z,50.90
2018-07-30T19:08:11.014Z,51.00
2018-07-30T19:10:39.850Z,51.60
2018-07-30T19:13:08.714Z,52.20
2018-07-30T19:15:37.534Z,52.50
2018-07-30T19:18:06.243Z,52.40
2018-07-30T19:20:34.979Z,52.80
2018-07-30T19:23:03.703Z,52.90
2018-07-30T19:25:32.460Z,52.90
2018-07-30T19:28:01.289Z,53.00
2018-07-30T19:30:29.980Z,53.20
2018-07-30T19:32:58.857Z,53.30
2018-07-30T19:35:27.870Z,53.40
2018-07-30T19:37:56.630Z,53.50
2018-07-30T19:40:25.499Z,53.60
2018-07-30T19:42:54.631Z,53.60
2018-07-30T19:45:23.558Z,53.60
2018-07-30T19:47:52.267Z,53.70
2018-07-30T19:50:21.840Z,53.70
2018-07-30T19:52:51.884Z,53.70
2018-07-30T19:55:20.602Z,53.50
2018-07-30T19:57:56.260Z,53.60
2018-07-30T20:00:25.813Z,53.70
2018-07-30T20:02:55.721Z,53.90
2018-07-30T20:05:31.877Z,54.10
2018-07-30T20:08:01.218Z,54.10
2018-07-30T20:10:29.947Z,54.20
2018-07-30T20:12:59.363Z,54.20
2018-07-30T20:15:28.115Z,53.90
2018-07-30T20:17:56.986Z,53.70
2018-07-30T20:20:25.770Z,53.50
2018-07-30T20:22:54.460Z,53.30
2018-07-30T20:25:23.133Z,53.30
2018-07-30T20:27:51.837Z,54.00
2018-07-30T20:30:20.868Z,53.60
2018-07-30T20:32:49.652Z,53.60
2018-07-30T20:35:18.491Z,54.00
2018-07-30T20:37:47.341Z,54.60
2018-07-30T20:40:16.134Z,55.00
2018-07-30T20:42:44.846Z,55.00
2018-07-30T20:45:13.655Z,55.50
2018-07-30T20:47:42.340Z,55.50
2018-07-30T20:50:11.157Z,55.90
2018-07-30T20:52:39.978Z,56.30
2018-07-30T20:55:08.869Z,57.20
2018-07-30T20:57:37.530Z,57.20
2018-07-30T21:00:06.353Z,58.10
2018-07-30T21:02:35.140Z,60.30
2018-07-30T21:05:04.039Z,59.80
2018-07-30T21:07:33.711Z,59.70
2018-07-30T21:10:02.542Z,60.00
2018-07-30T21:12:31.109Z,59.70
2018-07-30T21:14:59.906Z,59.60
2018-07-30T21:17:28.682Z,59.60
2018-07-30T21:19:57.486Z,59.30
2018-07-30T21:22:26.139Z,59.60
2018-07-30T21:24:54.822Z,59.80
2018-07-30T21:27:23.783Z,58.60
2018-07-30T21:29:52.659Z,59.10
2018-07-30T21:32:21.382Z,59.40
2018-07-30T21:34:50.134Z,59.30
2018-07-30T21:37:18.869Z,59.80
2018-07-30T21:39:47.531Z,59.50
2018-07-30T21:42:16.219Z,59.70
2018-07-30T21:44:44.833Z,59.50
2018-07-30T21:47:16.293Z,60.00
2018-07-30T21:49:45.033Z,60.80
2018-07-30T21:52:13.766Z,61.40
2018-07-30T21:54:42.456Z,61.90
2018-07-30T21:57:11.303Z,62.00
2018-07-30T21:59:40.300Z,62.30
2018-07-30T22:02:09.151Z,62.40
2018-07-30T22:04:37.835Z,62.50
2018-07-30T22:07:06.651Z,61.80
2018-07-30T22:09:39.673Z,62.10
2018-07-30T22:12:08.572Z,61.90
2018-07-30T22:14:37.269Z,61.70
2018-07-30T22:17:06.392Z,60.90
2018-07-30T22:19:35.126Z,61.10
2018-07-30T22:22:03.906Z,61.00
2018-07-30T22:24:32.760Z,61.70
2018-07-30T22:27:01.517Z,62.20
2018-07-30T22:29:30.259Z,62.20
2018-07-30T22:31:59.076Z,62.20
2018-07-30T22:34:27.984Z,61.70
2018-07-30T22:36:56.662Z,61.30
2018-07-30T22:39:25.570Z,62.50
2018-07-30T22:41:54.286Z,63.90
2018-07-30T22:44:23.050Z,63.70
2018-07-30T22:46:51.886Z,63.60
2018-07-30T22:49:20.973Z,63.20
2018-07-30T22:51:49.751Z,62.90
2018-07-30T22:54:18.494Z,63.20
2018-07-30T22:56:47.195Z,63.30
2018-07-30T22:59:15.799Z,61.20
2018-07-30T23:01:44.539Z,63.20
2018-07-30T23:04:15.924Z,63.80
2018-07-30T23:06:44.743Z,63.70
2018-07-30T23:09:13.613Z,64.20
2018-07-30T23:11:42.264Z,64.10
2018-07-30T23:14:10.930Z,64.30
2018-07-30T23:16:39.663Z,64.10
2018-07-30T23:19:08.479Z,64.70
2018-07-30T23:21:37.373Z,65.20
2018-07-30T23:24:06.042Z,64.70
2018-07-30T23:26:34.804Z,64.20
2018-07-30T23:29:03.669Z,63.80
2018-07-30T23:31:32.399Z,64.20
2018-07-30T23:34:01.161Z,64.30
2018-07-30T23:36:29.872Z,64.50
2018-07-30T23:38:58.580Z,64.80
2018-07-30T23:41:27.306Z,64.70
2018-07-30T23:43:56.068Z,64.80
2018-07-30T23:46:24.855Z,64.60
2018-07-30T23:48:53.575Z,64.80
2018-07-30T23:51:22.277Z,63.00
2018-07-30T23:53:51.001Z,65.80
2018-07-30T23:56:19.754Z,65.90
2018-07-30T23:58:48.398Z,66.80
